sensor_id;sensor_type;location;lat;lon;timestamp;pressure;altitude;pressure_sealevel;temperature;humidity
44531;BME280;30240;47.418;0.700;2023-11-21T00:01:54;100274.96948242188;;;10.65;90.15
44531;BME280;30240;47.418;0.700;2023-11-21T00:04:18;100269.23217773438;;;10.69;90.08
44531;BME280;30240;47.418;0.700;2023-11-21T00:06:43;100270.6298828125;;;10.65;89.99
44531;BME280;30240;47.418;0.700;2023-11-21T00:09:09;100273.88305664062;;;10.69;89.88
44531;BME280;30240;47.418;0.700;2023-11-21T00:11:34;100273.88305664062;;;10.69;89.88
44531;BME280;30240;47.418;0.700;2023-11-21T00:13:59;100270.54443359375;;;10.67;89.83
44531;BME280;30240;47.418;0.700;2023-11-21T00:16:24;100271.22802734375;;;10.69;89.76
44531;BME280;30240;47.418;0.700;2023-11-21T00:18:49;100271.19750976562;;;10.64;89.68
44531;BME280;30240;47.418;0.700;2023-11-21T00:21:14;100269.23217773438;;;10.65;89.67
44531;BME280;30240;47.418;0.700;2023-11-21T00:23:38;100269.23217773438;;;10.65;89.67
44531;BME280;30240;47.418;0.700;2023-11-21T00:26:04;100269.2626953125;;;10.64;89.6
44531;BME280;30240;47.418;0.700;2023-11-21T00:28:29;100270.25146484375;;;10.72;89.54
44531;BME280;30240;47.418;0.700;2023-11-21T00:30:54;100273.8037109375;;;10.68;89.55
44531;BME280;30240;47.418;0.700;2023-11-21T00:33:18;100273.55346679688;;;10.63;89.51
44531;BME280;30240;47.418;0.700;2023-11-21T00:35:43;100278.67431640625;;;10.64;89.42
44531;BME280;30240;47.418;0.700;2023-11-21T00:38:08;100278.67431640625;;;10.64;89.42
44531;BME280;30240;47.418;0.700;2023-11-21T00:40:33;100276.7333984375;;;10.64;89.42
44531;BME280;30240;47.418;0.700;2023-11-21T00:42:58;100277.5634765625;;;10.54;89.45
44531;BME280;30240;47.418;0.700;2023-11-21T00:45:23;100274.38354492188;;;10.54;89.28
44531;BME280;30240;47.418;0.700;2023-11-21T00:47:48;100266.48559570312;;;10.54;88.83
44531;BME280;30240;47.418;0.700;2023-11-21T00:50:13;100266.48559570312;;;10.54;88.83
44531;BME280;30240;47.418;0.700;2023-11-21T00:52:38;100269.43969726562;;;10.57;88.44
44531;BME280;30240;47.418;0.700;2023-11-21T00:55:04;100273.96850585938;;;10.63;88.13
44531;BME280;30240;47.418;0.700;2023-11-21T00:57:28;100280.60913085938;;;10.61;87.78
44531;BME280;30240;47.418;0.700;2023-11-21T00:59:54;100281.38427734375;;;10.58;87.61
44531;BME280;30240;47.418;0.700;2023-11-21T01:02:18;100281.38427734375;;;10.58;87.61
44531;BME280;30240;47.418;0.700;2023-11-21T01:04:43;100283.0810546875;;;10.6;87.17
44531;BME280;30240;47.418;0.700;2023-11-21T01:07:08;100284.53369140625;;;10.61;86.95
44531;BME280;30240;47.418;0.700;2023-11-21T01:09:34;100282.22045898438;;;10.64;86.85
44531;BME280;30240;47.418;0.700;2023-11-21T01:11:59;100288.4765625;;;10.64;87.02
44531;BME280;30240;47.418;0.700;2023-11-21T01:14:24;100288.4765625;;;10.64;87.02
44531;BME280;30240;47.418;0.700;2023-11-21T01:16:49;100288.18969726562;;;10.61;87.19
44531;BME280;30240;47.418;0.700;2023-11-21T01:19:13;100279.4189453125;;;10.6;87.32
44531;BME280;30240;47.418;0.700;2023-11-21T01:21:38;100285.99853515625;;;10.57;87.46
44531;BME280;30240;47.418;0.700;2023-11-21T01:24:04;100291.46728515625;;;10.54;87.57
44531;BME280;30240;47.418;0.700;2023-11-21T01:26:29;100291.46728515625;;;10.54;87.57
44531;BME280;30240;47.418;0.700;2023-11-21T01:28:53;100288.73291015625;;;10.47;87.84
44531;BME280;30240;47.418;0.700;2023-11-21T01:31:18;100293.29833984375;;;10.5;88.04
44531;BME280;30240;47.418;0.700;2023-11-21T01:33:43;100294.15893554688;;;10.47;88.23
44531;BME280;30240;47.418;0.700;2023-11-21T01:36:09;100297.32666015625;;;10.5;88.39
44531;BME280;30240;47.418;0.700;2023-11-21T01:38:33;100297.32666015625;;;10.5;88.39
44531;BME280;30240;47.418;0.700;2023-11-21T01:40:58;100293.52416992188;;;10.49;88.57
44531;BME280;30240;47.418;0.700;2023-11-21T01:43:23;100292.34619140625;;;10.53;88.67
44531;BME280;30240;47.418;0.700;2023-11-21T01:45:49;100287.94555664062;;;10.51;88.87
44531;BME280;30240;47.418;0.700;2023-11-21T01:48:14;100294.90356445312;;;10.56;88.98
44531;BME280;30240;47.418;0.700;2023-11-21T01:50:38;100294.90356445312;;;10.56;88.98
44531;BME280;30240;47.418;0.700;2023-11-21T01:53:03;100293.73168945312;;;10.5;89.19
44531;BME280;30240;47.418;0.700;2023-11-21T01:55:29;100295.22094726562;;;10.49;89.37
44531;BME280;30240;47.418;0.700;2023-11-21T01:57:54;100295.08056640625;;;10.47;89.65
44531;BME280;30240;47.418;0.700;2023-11-21T02:00:19;100293.89038085938;;;10.47;89.92
44531;BME280;30240;47.418;0.700;2023-11-21T02:02:44;100291.31469726562;;;10.44;90.1
44531;BME280;30240;47.418;0.700;2023-11-21T02:05:09;100291.31469726562;;;10.44;90.1
44531;BME280;30240;47.418;0.700;2023-11-21T02:07:34;100293.1884765625;;;10.4;90.43
44531;BME280;30240;47.418;0.700;2023-11-21T02:09:58;100294.3115234375;;;10.43;90.58
44531;BME280;30240;47.418;0.700;2023-11-21T02:12:24;100301.58081054688;;;10.41;90.68
44531;BME280;30240;47.418;0.700;2023-11-21T02:14:48;100290.087890625;;;10.36;90.83
44531;BME280;30240;47.418;0.700;2023-11-21T02:17:13;100290.087890625;;;10.36;90.83
44531;BME280;30240;47.418;0.700;2023-11-21T02:19:38;100298.8525390625;;;10.34;90.91
44531;BME280;30240;47.418;0.700;2023-11-21T02:22:04;100303.62548828125;;;10.32;91.02
44531;BME280;30240;47.418;0.700;2023-11-21T02:24:28;100302.59399414062;;;10.33;91.2
44531;BME280;30240;47.418;0.700;2023-11-21T02:26:54;100305.97534179688;;;10.34;91.29
44531;BME280;30240;47.418;0.700;2023-11-21T02:29:19;100305.97534179688;;;10.34;91.29
44531;BME280;30240;47.418;0.700;2023-11-21T02:31:45;100306.02416992188;;;10.33;91.38
44531;BME280;30240;47.418;0.700;2023-11-21T02:34:08;100306.40869140625;;;10.33;91.52
44531;BME280;30240;47.418;0.700;2023-11-21T02:36:33;100314.5751953125;;;10.29;91.65
44531;BME280;30240;47.418;0.700;2023-11-21T02:38:58;100317.1875;;;10.29;91.74
44531;BME280;30240;47.418;0.700;2023-11-21T02:41:24;100317.1875;;;10.29;91.74
44531;BME280;30240;47.418;0.700;2023-11-21T02:43:49;100320.14770507812;;;10.32;91.77
44531;BME280;30240;47.418;0.700;2023-11-21T02:46:14;100319.7509765625;;;10.3;91.83
44531;BME280;30240;47.418;0.700;2023-11-21T02:48:38;100322.74780273438;;;10.26;91.97
44531;BME280;30240;47.418;0.700;2023-11-21T02:51:04;100325.39672851562;;;10.32;92.14
44531;BME280;30240;47.418;0.700;2023-11-21T02:53:28;100325.39672851562;;;10.32;92.14
44531;BME280;30240;47.418;0.700;2023-11-21T02:55:53;100323.41918945312;;;10.33;92.13
44531;BME280;30240;47.418;0.700;2023-11-21T02:58:19;100318.08471679688;;;10.33;92.19
44531;BME280;30240;47.418;0.700;2023-11-21T03:00:44;100319.43969726562;;;10.36;92.26
44531;BME280;30240;47.418;0.700;2023-11-21T03:03:09;100319.90356445312;;;10.34;92.37
44531;BME280;30240;47.418;0.700;2023-11-21T03:05:33;100319.90356445312;;;10.34;92.37
44531;BME280;30240;47.418;0.700;2023-11-21T03:07:59;100316.18041992188;;;10.33;92.4
44531;BME280;30240;47.418;0.700;2023-11-21T03:10:24;100319.28100585938;;;10.32;92.43
44531;BME280;30240;47.418;0.700;2023-11-21T03:12:49;100319.15893554688;;;10.25;92.46
44531;BME280;30240;47.418;0.700;2023-11-21T03:15:14;100318.18237304688;;;10.28;92.58
44531;BME280;30240;47.418;0.700;2023-11-21T03:17:39;100318.18237304688;;;10.28;92.58
44531;BME280;30240;47.418;0.700;2023-11-21T03:20:04;100321.484375;;;10.28;92.56
44531;BME280;30240;47.418;0.700;2023-11-21T03:22:29;100313.134765625;;;10.28;92.59
44531;BME280;30240;47.418;0.700;2023-11-21T03:24:54;100320.8251953125;;;10.28;92.62
44531;BME280;30240;47.418;0.700;2023-11-21T03:27:19;100321.07543945312;;;10.32;92.64
44531;BME280;30240;47.418;0.700;2023-11-21T03:29:44;100321.07543945312;;;10.32;92.64
44531;BME280;30240;47.418;0.700;2023-11-21T03:32:09;100320.61767578125;;;10.32;92.57
44531;BME280;30240;47.418;0.700;2023-11-21T03:34:34;100318.34106445312;;;10.37;92.58
44531;BME280;30240;47.418;0.700;2023-11-21T03:36:59;100324.39575195312;;;10.36;92.55
44531;BME280;30240;47.418;0.700;2023-11-21T03:39:24;100328.08837890625;;;10.33;92.59
44531;BME280;30240;47.418;0.700;2023-11-21T03:41:49;100331.57958984375;;;10.33;92.55
44531;BME280;30240;47.418;0.700;2023-11-21T03:44:14;100331.57958984375;;;10.33;92.55
44531;BME280;30240;47.418;0.700;2023-11-21T03:46:39;100330.27954101562;;;10.36;92.55
44531;BME280;30240;47.418;0.700;2023-11-21T03:49:04;100334.68627929688;;;10.41;92.51
44531;BME280;30240;47.418;0.700;2023-11-21T03:51:29;100332.50122070312;;;10.39;92.47
44531;BME280;30240;47.418;0.700;2023-11-21T03:53:54;100334.14916992188;;;10.39;92.46
44531;BME280;30240;47.418;0.700;2023-11-21T03:56:19;100334.14916992188;;;10.39;92.46
44531;BME280;30240;47.418;0.700;2023-11-21T03:58:43;100340.34423828125;;;10.39;92.45
44531;BME280;30240;47.418;0.700;2023-11-21T04:01:08;100341.5283203125;;;10.49;92.44
44531;BME280;30240;47.418;0.700;2023-11-21T04:03:34;100344.76318359375;;;10.47;92.38
44531;BME280;30240;47.418;0.700;2023-11-21T04:05:59;100348.13842773438;;;10.51;92.33
44531;BME280;30240;47.418;0.700;2023-11-21T04:08:24;100348.13842773438;;;10.51;92.33
44531;BME280;30240;47.418;0.700;2023-11-21T04:10:48;100347.607421875;;;10.54;92.26
44531;BME280;30240;47.418;0.700;2023-11-21T04:13:14;100349.267578125;;;10.6;92.22
44531;BME280;30240;47.418;0.700;2023-11-21T04:15:39;100350.09155273438;;;10.5;92.21
44531;BME280;30240;47.418;0.700;2023-11-21T04:18:04;100352.54516601562;;;10.53;92.25
44531;BME280;30240;47.418;0.700;2023-11-21T04:20:29;100352.54516601562;;;10.53;92.25
44531;BME280;30240;47.418;0.700;2023-11-21T04:22:54;100352.99072265625;;;10.58;92.19
44531;BME280;30240;47.418;0.700;2023-11-21T04:25:19;100354.20532226562;;;10.49;92.12
44531;BME280;30240;47.418;0.700;2023-11-21T04:27:45;100353.7841796875;;;10.54;92.12
44531;BME280;30240;47.418;0.700;2023-11-21T04:30:09;100362.4267578125;;;10.53;92.09
44531;BME280;30240;47.418;0.700;2023-11-21T04:32:34;100362.4267578125;;;10.53;92.09
44531;BME280;30240;47.418;0.700;2023-11-21T04:34:59;100367.38891601562;;;10.47;92.07
44531;BME280;30240;47.418;0.700;2023-11-21T04:37:24;100372.16186523438;;;10.49;92.1
44531;BME280;30240;47.418;0.700;2023-11-21T04:39:49;100375.42114257812;;;10.5;92.05
44531;BME280;30240;47.418;0.700;2023-11-21T04:42:14;100379.345703125;;;10.49;92.05
44531;BME280;30240;47.418;0.700;2023-11-21T04:44:39;100379.345703125;;;10.49;92.05
44531;BME280;30240;47.418;0.700;2023-11-21T04:47:04;100378.21655273438;;;10.54;92.03
44531;BME280;30240;47.418;0.700;2023-11-21T04:49:28;100377.56958007812;;;10.47;92.0
44531;BME280;30240;47.418;0.700;2023-11-21T04:51:53;100380.55419921875;;;10.5;92.06
44531;BME280;30240;47.418;0.700;2023-11-21T04:54:19;100382.73315429688;;;10.5;92.1
44531;BME280;30240;47.418;0.700;2023-11-21T04:56:44;100382.73315429688;;;10.5;92.1
44531;BME280;30240;47.418;0.700;2023-11-21T04:59:08;100380.05981445312;;;10.54;92.12
44531;BME280;30240;47.418;0.700;2023-11-21T05:01:34;100384.00268554688;;;10.58;92.07
44531;BME280;30240;47.418;0.700;2023-11-21T05:03:58;100381.45141601562;;;10.56;92.07
44531;BME280;30240;47.418;0.700;2023-11-21T05:06:23;100383.96606445312;;;10.54;92.05
44531;BME280;30240;47.418;0.700;2023-11-21T05:08:49;100389.5263671875;;;10.57;92.05
44531;BME280;30240;47.418;0.700;2023-11-21T05:11:26;100389.5263671875;;;10.57;92.05
44531;BME280;30240;47.418;0.700;2023-11-21T05:13:39;100385.48583984375;;;10.61;92.03
44531;BME280;30240;47.418;0.700;2023-11-21T05:16:04;100385.99853515625;;;10.57;91.96
44531;BME280;30240;47.418;0.700;2023-11-21T05:18:28;100385.72387695312;;;10.61;91.97
44531;BME280;30240;47.418;0.700;2023-11-21T05:20:54;100389.990234375;;;10.65;91.98
44531;BME280;30240;47.418;0.700;2023-11-21T05:23:19;100389.990234375;;;10.65;91.98
44531;BME280;30240;47.418;0.700;2023-11-21T05:25:43;100395.12329101562;;;10.65;91.96
44531;BME280;30240;47.418;0.700;2023-11-21T05:28:08;100396.68579101562;;;10.68;91.97
44531;BME280;30240;47.418;0.700;2023-11-21T05:30:33;100404.26635742188;;;10.64;92.11
44531;BME280;30240;47.418;0.700;2023-11-21T05:32:58;100402.30712890625;;;10.67;92.16
44531;BME280;30240;47.418;0.700;2023-11-21T05:35:24;100402.30712890625;;;10.67;92.16
44531;BME280;30240;47.418;0.700;2023-11-21T05:37:48;100404.87670898438;;;10.63;92.19
44531;BME280;30240;47.418;0.700;2023-11-21T05:40:14;100408.3740234375;;;10.68;92.15
44531;BME280;30240;47.418;0.700;2023-11-21T05:42:40;100407.84301757812;;;10.68;92.11
44531;BME280;30240;47.418;0.700;2023-11-21T05:45:04;100411.62719726562;;;10.67;92.1
44531;BME280;30240;47.418;0.700;2023-11-21T05:47:29;100411.62719726562;;;10.67;92.1
44531;BME280;30240;47.418;0.700;2023-11-21T05:49:54;100413.39111328125;;;10.68;92.13
44531;BME280;30240;47.418;0.700;2023-11-21T05:52:18;100419.47631835938;;;10.64;92.09
44531;BME280;30240;47.418;0.700;2023-11-21T05:54:43;100421.69799804688;;;10.68;92.1
44531;BME280;30240;47.418;0.700;2023-11-21T05:57:08;100419.7021484375;;;10.68;92.12
44531;BME280;30240;47.418;0.700;2023-11-21T05:59:33;100419.7021484375;;;10.68;92.12
44531;BME280;30240;47.418;0.700;2023-11-21T06:01:59;100419.970703125;;;10.65;92.11
44531;BME280;30240;47.418;0.700;2023-11-21T06:04:24;100420.06225585938;;;10.67;92.03
44531;BME280;30240;47.418;0.700;2023-11-21T06:06:48;100423.15673828125;;;10.68;91.92
44531;BME280;30240;47.418;0.700;2023-11-21T06:09:14;100418.82934570312;;;10.69;91.83
44531;BME280;30240;47.418;0.700;2023-11-21T06:11:39;100418.82934570312;;;10.69;91.83
44531;BME280;30240;47.418;0.700;2023-11-21T06:14:04;100421.17919921875;;;10.72;91.8
44531;BME280;30240;47.418;0.700;2023-11-21T06:16:28;100423.33374023438;;;10.67;91.74
44531;BME280;30240;47.418;0.700;2023-11-21T06:18:53;100418.0908203125;;;10.69;91.69
44531;BME280;30240;47.418;0.700;2023-11-21T06:21:19;100418.5302734375;;;10.64;91.66
44531;BME280;30240;47.418;0.700;2023-11-21T06:23:43;100418.5302734375;;;10.64;91.66
44531;BME280;30240;47.418;0.700;2023-11-21T06:26:08;100431.48193359375;;;10.64;91.65
44531;BME280;30240;47.418;0.700;2023-11-21T06:28:33;100432.31811523438;;;10.61;91.67
44531;BME280;30240;47.418;0.700;2023-11-21T06:30:58;100435.13793945312;;;10.6;91.64
44531;BME280;30240;47.418;0.700;2023-11-21T06:33:24;100436.94458007812;;;10.61;91.61
44531;BME280;30240;47.418;0.700;2023-11-21T06:35:48;100436.94458007812;;;10.61;91.61
44531;BME280;30240;47.418;0.700;2023-11-21T06:38:14;100441.95556640625;;;10.58;91.64
44531;BME280;30240;47.418;0.700;2023-11-21T06:40:39;100444.84252929688;;;10.54;91.64
44531;BME280;30240;47.418;0.700;2023-11-21T06:43:03;100443.1640625;;;10.58;91.57
44531;BME280;30240;47.418;0.700;2023-11-21T06:45:28;100445.4345703125;;;10.57;91.56
44531;BME280;30240;47.418;0.700;2023-11-21T06:47:54;100449.12719726562;;;10.57;91.54
44531;BME280;30240;47.418;0.700;2023-11-21T06:50:19;100449.12719726562;;;10.57;91.54
44531;BME280;30240;47.418;0.700;2023-11-21T06:52:43;100453.94287109375;;;10.51;91.53
44531;BME280;30240;47.418;0.700;2023-11-21T06:55:09;100454.77905273438;;;10.53;91.52
44531;BME280;30240;47.418;0.700;2023-11-21T06:57:33;100465.43579101562;;;10.51;91.47
44531;BME280;30240;47.418;0.700;2023-11-21T06:59:59;100465.65551757812;;;10.51;91.5
44531;BME280;30240;47.418;0.700;2023-11-21T07:02:24;100465.65551757812;;;10.51;91.5
44531;BME280;30240;47.418;0.700;2023-11-21T07:04:48;100477.1240234375;;;10.54;91.48
44531;BME280;30240;47.418;0.700;2023-11-21T07:07:14;100482.53173828125;;;10.51;91.51
44531;BME280;30240;47.418;0.700;2023-11-21T07:09:39;100486.4501953125;;;10.51;91.52
44531;BME280;30240;47.418;0.700;2023-11-21T07:12:05;100493.07250976562;;;10.49;91.57
44531;BME280;30240;47.418;0.700;2023-11-21T07:14:29;100493.07250976562;;;10.49;91.57
44531;BME280;30240;47.418;0.700;2023-11-21T07:16:53;100499.29809570312;;;10.49;91.56
44531;BME280;30240;47.418;0.700;2023-11-21T07:19:19;100499.54833984375;;;10.51;91.58
44531;BME280;30240;47.418;0.700;2023-11-21T07:21:43;100499.49340820312;;;10.54;91.58
44531;BME280;30240;47.418;0.700;2023-11-21T07:24:09;100503.68041992188;;;10.51;91.6
44531;BME280;30240;47.418;0.700;2023-11-21T07:26:34;100503.68041992188;;;10.51;91.6
44531;BME280;30240;47.418;0.700;2023-11-21T07:28:59;100500.93994140625;;;10.53;91.59
44531;BME280;30240;47.418;0.700;2023-11-21T07:31:24;100507.58056640625;;;10.49;91.62
44531;BME280;30240;47.418;0.700;2023-11-21T07:33:48;100510.21118164062;;;10.5;91.69
44531;BME280;30240;47.418;0.700;2023-11-21T07:36:14;100508.50219726562;;;10.51;91.71
44531;BME280;30240;47.418;0.700;2023-11-21T07:38:39;100508.50219726562;;;10.51;91.71
44531;BME280;30240;47.418;0.700;2023-11-21T07:41:04;100515.85693359375;;;10.56;91.71
44531;BME280;30240;47.418;0.700;2023-11-21T07:43:28;100515.96069335938;;;10.54;91.58
44531;BME280;30240;47.418;0.700;2023-11-21T07:45:54;100524.96337890625;;;10.58;91.51
44531;BME280;30240;47.418;0.700;2023-11-21T07:48:18;100520.0439453125;;;10.6;91.45
44531;BME280;30240;47.418;0.700;2023-11-21T07:50:43;100520.0439453125;;;10.6;91.45
44531;BME280;30240;47.418;0.700;2023-11-21T07:53:08;100527.7099609375;;;10.61;91.4
44531;BME280;30240;47.418;0.700;2023-11-21T07:55:34;100529.31518554688;;;10.63;91.26
44531;BME280;30240;47.418;0.700;2023-11-21T07:57:59;100528.7353515625;;;10.71;91.13
44531;BME280;30240;47.418;0.700;2023-11-21T08:00:23;100531.67724609375;;;10.76;91.0
44531;BME280;30240;47.418;0.700;2023-11-21T08:02:48;100531.67724609375;;;10.76;91.0
44531;BME280;30240;47.418;0.700;2023-11-21T08:05:14;100537.75634765625;;;10.74;90.91
44531;BME280;30240;47.418;0.700;2023-11-21T08:07:38;100546.98486328125;;;10.74;90.81
44531;BME280;30240;47.418;0.700;2023-11-21T08:10:04;100547.7783203125;;;10.78;90.82
44531;BME280;30240;47.418;0.700;2023-11-21T08:12:28;100550.146484375;;;10.81;90.87
44531;BME280;30240;47.418;0.700;2023-11-21T08:14:53;100556.34155273438;;;10.89;90.84
44531;BME280;30240;47.418;0.700;2023-11-21T08:17:18;100556.34155273438;;;10.89;90.84
44531;BME280;30240;47.418;0.700;2023-11-21T08:19:43;100560.91918945312;;;10.79;90.75
44531;BME280;30240;47.418;0.700;2023-11-21T08:22:08;100562.8662109375;;;10.78;90.91
44531;BME280;30240;47.418;0.700;2023-11-21T08:24:33;100564.89868164062;;;10.81;90.91
44531;BME280;30240;47.418;0.700;2023-11-21T08:26:59;100566.1865234375;;;10.88;90.85
44531;BME280;30240;47.418;0.700;2023-11-21T08:29:23;100566.1865234375;;;10.88;90.85
44531;BME280;30240;47.418;0.700;2023-11-21T08:31:48;100576.5380859375;;;10.84;90.87
44531;BME280;30240;47.418;0.700;2023-11-21T08:34:13;100582.080078125;;;10.91;90.82
44531;BME280;30240;47.418;0.700;2023-11-21T08:36:41;100580.322265625;;;10.89;90.79
44531;BME280;30240;47.418;0.700;2023-11-21T08:39:04;100577.1728515625;;;10.84;90.65
44531;BME280;30240;47.418;0.700;2023-11-21T08:41:28;100577.1728515625;;;10.84;90.65
44531;BME280;30240;47.418;0.700;2023-11-21T08:43:53;100576.31225585938;;;10.92;90.44
44531;BME280;30240;47.418;0.700;2023-11-21T08:46:19;100581.19506835938;;;10.95;90.18
44531;BME280;30240;47.418;0.700;2023-11-21T08:48:43;100577.5146484375;;;10.82;90.01
44531;BME280;30240;47.418;0.700;2023-11-21T08:51:10;100582.373046875;;;10.89;89.92
44531;BME280;30240;47.418;0.700;2023-11-21T08:53:34;100582.373046875;;;10.89;89.92
44531;BME280;30240;47.418;0.700;2023-11-21T08:55:59;100577.67944335938;;;10.95;89.65
44531;BME280;30240;47.418;0.700;2023-11-21T08:58:23;100568.017578125;;;11.03;89.42
44531;BME280;30240;47.418;0.700;2023-11-21T09:00:48;100565.234375;;;11.02;89.22
44531;BME280;30240;47.418;0.700;2023-11-21T09:03:14;100566.99829101562;;;11.15;88.96
44531;BME280;30240;47.418;0.700;2023-11-21T09:05:39;100566.99829101562;;;11.15;88.96
44531;BME280;30240;47.418;0.700;2023-11-21T09:08:03;100570.01342773438;;;11.2;88.67
44531;BME280;30240;47.418;0.700;2023-11-21T09:10:28;100579.91943359375;;;11.27;88.41
44531;BME280;30240;47.418;0.700;2023-11-21T09:12:53;100575.2197265625;;;11.03;88.28
44531;BME280;30240;47.418;0.700;2023-11-21T09:15:18;100577.62451171875;;;11.31;88.36
44531;BME280;30240;47.418;0.700;2023-11-21T09:17:43;100577.62451171875;;;11.31;88.36
44531;BME280;30240;47.418;0.700;2023-11-21T09:20:09;100572.65014648438;;;11.13;88.2
44531;BME280;30240;47.418;0.700;2023-11-21T09:22:33;100570.68481445312;;;11.09;88.27
44531;BME280;30240;47.418;0.700;2023-11-21T09:24:58;100575.9521484375;;;11.22;88.08
44531;BME280;30240;47.418;0.700;2023-11-21T09:27:24;100577.64282226562;;;11.08;87.73
44531;BME280;30240;47.418;0.700;2023-11-21T09:29:49;100577.64282226562;;;11.08;87.73
44531;BME280;30240;47.418;0.700;2023-11-21T09:32:14;100577.87475585938;;;11.22;87.49
44531;BME280;30240;47.418;0.700;2023-11-21T09:34:38;100583.17260742188;;;11.22;87.17
44531;BME280;30240;47.418;0.700;2023-11-21T09:37:04;100574.32861328125;;;11.13;87.09
44531;BME280;30240;47.418;0.700;2023-11-21T09:39:28;100579.48608398438;;;11.31;87.2
44531;BME280;30240;47.418;0.700;2023-11-21T09:41:57;100596.29516601562;;;11.61;86.51
44531;BME280;30240;47.418;0.700;2023-11-21T09:44:22;100596.29516601562;;;11.61;86.51
44531;BME280;30240;47.418;0.700;2023-11-21T09:46:44;100600.22583007812;;;11.4;86.63
44531;BME280;30240;47.418;0.700;2023-11-21T09:49:09;100612.1337890625;;;11.35;87.13
44531;BME280;30240;47.418;0.700;2023-11-21T09:51:33;100628.857421875;;;11.37;86.86
44531;BME280;30240;47.418;0.700;2023-11-21T09:53:59;100636.6943359375;;;11.15;87.08
44531;BME280;30240;47.418;0.700;2023-11-21T09:56:23;100636.6943359375;;;11.15;87.08
44531;BME280;30240;47.418;0.700;2023-11-21T09:58:50;100636.23657226562;;;10.92;87.31
44531;BME280;30240;47.418;0.700;2023-11-21T10:01:15;100654.8583984375;;;10.91;87.49
44531;BME280;30240;47.418;0.700;2023-11-21T10:03:39;100658.29467773438;;;10.89;87.5
44531;BME280;30240;47.418;0.700;2023-11-21T10:06:04;100667.26684570312;;;10.86;87.63
44531;BME280;30240;47.418;0.700;2023-11-21T10:08:29;100667.26684570312;;;10.86;87.63
44531;BME280;30240;47.418;0.700;2023-11-21T10:10:54;100658.6181640625;;;10.81;87.67
44531;BME280;30240;47.418;0.700;2023-11-21T10:13:19;100658.88061523438;;;10.86;87.6
44531;BME280;30240;47.418;0.700;2023-11-21T10:15:44;100666.66259765625;;;10.86;87.44
44531;BME280;30240;47.418;0.700;2023-11-21T10:18:08;100665.625;;;10.95;87.41
44531;BME280;30240;47.418;0.700;2023-11-21T10:20:33;100665.625;;;10.95;87.41
44531;BME280;30240;47.418;0.700;2023-11-21T10:22:59;100658.50219726562;;;11.05;87.24
44531;BME280;30240;47.418;0.700;2023-11-21T10:25:23;100641.10717773438;;;11.27;86.97
44531;BME280;30240;47.418;0.700;2023-11-21T10:27:49;100640.97900390625;;;11.33;86.65
44531;BME280;30240;47.418;0.700;2023-11-21T10:30:14;100639.73999023438;;;11.38;86.45
44531;BME280;30240;47.418;0.700;2023-11-21T10:32:39;100639.73999023438;;;11.38;86.45
44531;BME280;30240;47.418;0.700;2023-11-21T10:35:05;100626.65405273438;;;11.51;86.06
44531;BME280;30240;47.418;0.700;2023-11-21T10:37:28;100634.9365234375;;;11.55;85.52
44531;BME280;30240;47.418;0.700;2023-11-21T10:39:57;100623.57788085938;;;11.66;85.23
44531;BME280;30240;47.418;0.700;2023-11-21T10:42:18;100621.42944335938;;;11.71;85.38
44531;BME280;30240;47.418;0.700;2023-11-21T10:44:45;100621.42944335938;;;11.71;85.38
44531;BME280;30240;47.418;0.700;2023-11-21T10:47:08;100627.62451171875;;;11.35;85.49
44531;BME280;30240;47.418;0.700;2023-11-21T10:49:33;100633.17260742188;;;11.42;86.06
44531;BME280;30240;47.418;0.700;2023-11-21T10:51:59;100650.5126953125;;;11.41;86.14
44531;BME280;30240;47.418;0.700;2023-11-21T10:54:25;100654.49829101562;;;11.5;86.2
44531;BME280;30240;47.418;0.700;2023-11-21T10:56:49;100654.49829101562;;;11.5;86.2
44531;BME280;30240;47.418;0.700;2023-11-21T10:59:14;100641.71752929688;;;11.58;86.05
44531;BME280;30240;47.418;0.700;2023-11-21T11:01:38;100640.87524414062;;;11.76;85.52
44531;BME280;30240;47.418;0.700;2023-11-21T11:04:05;100624.94506835938;;;12.0;85.3
44531;BME280;30240;47.418;0.700;2023-11-21T11:06:29;100627.42919921875;;;11.94;84.89
44531;BME280;30240;47.418;0.700;2023-11-21T11:08:54;100627.42919921875;;;11.94;84.89
44531;BME280;30240;47.418;0.700;2023-11-21T11:11:18;100619.39086914062;;;11.83;84.81
44531;BME280;30240;47.418;0.700;2023-11-21T11:13:44;100611.376953125;;;12.18;84.66
44531;BME280;30240;47.418;0.700;2023-11-21T11:16:08;100608.251953125;;;12.0;84.68
44531;BME280;30240;47.418;0.700;2023-11-21T11:18:33;100617.8466796875;;;12.0;84.59
44531;BME280;30240;47.418;0.700;2023-11-21T11:21:05;100620.02563476562;;;12.12;84.53
44531;BME280;30240;47.418;0.700;2023-11-21T11:21:07;100620.02563476562;;;12.12;84.53